MEO weather

Dare County Regional Airport
Manteo, North Carolina, United States

Public forecast

Using degrees Fahrenheit for public forecast. Weather courtesy of forecast.io.

METAR (pilot weather report)

Retrieved 2019/04/22 18:20 UTC (0 seconds ago):

KMQI 221820Z AUTO 32008KT 10SM CLR 19/10 A3010 RMK AO2 T01910096

TAF (pilot weather forecast)

Closest forecast is Elizabeth City Regional Airport & Coast Guard Air Station, 31.0 nm (57.4 km) NW. Retrieved 2019/04/22 18:42 UTC (0 seconds ago):

TAF TAF KECG 221736Z 2218/2318 29010KT P6SM SCT060 FM222300 28005KT P6SM SKC FM230300 22003KT P6SM SKC FM231400 23006KT P6SM SKC